sensor_id;sensor_type;location;lat;lon;timestamp;P1;durP1;ratioP1;P2;durP2;ratioP2
1699;SDS011;847;48.058;7.810;2022-11-15T00:00:28;4.67;;;4.27;;
1699;SDS011;847;48.058;7.810;2022-11-15T00:02:55;4.97;;;3.90;;
1699;SDS011;847;48.058;7.810;2022-11-15T00:05:22;7.10;;;4.57;;
1699;SDS011;847;48.058;7.810;2022-11-15T00:07:49;6.70;;;4.43;;
1699;SDS011;847;48.058;7.810;2022-11-15T00:10:18;4.50;;;3.97;;
1699;SDS011;847;48.058;7.810;2022-11-15T00:12:45;5.17;;;4.40;;
1699;SDS011;847;48.058;7.810;2022-11-15T00:15:14;4.70;;;4.17;;
1699;SDS011;847;48.058;7.810;2022-11-15T00:17:41;4.30;;;3.90;;
1699;SDS011;847;48.058;7.810;2022-11-15T00:20:08;5.13;;;4.50;;
1699;SDS011;847;48.058;7.810;2022-11-15T00:22:36;5.00;;;3.80;;
1699;SDS011;847;48.058;7.810;2022-11-15T00:25:03;5.60;;;4.07;;
1699;SDS011;847;48.058;7.810;2022-11-15T00:27:32;7.20;;;4.20;;
1699;SDS011;847;48.058;7.810;2022-11-15T00:30:00;7.83;;;4.47;;
1699;SDS011;847;48.058;7.810;2022-11-15T00:32:30;3.80;;;3.50;;
1699;SDS011;847;48.058;7.810;2022-11-15T00:34:57;6.73;;;4.63;;
1699;SDS011;847;48.058;7.810;2022-11-15T00:37:24;4.93;;;3.50;;
1699;SDS011;847;48.058;7.810;2022-11-15T00:39:51;5.10;;;4.40;;
1699;SDS011;847;48.058;7.810;2022-11-15T00:42:18;4.73;;;4.20;;
1699;SDS011;847;48.058;7.810;2022-11-15T00:44:46;8.27;;;4.23;;
1699;SDS011;847;48.058;7.810;2022-11-15T00:47:12;4.80;;;3.97;;
1699;SDS011;847;48.058;7.810;2022-11-15T00:49:41;5.73;;;3.80;;
1699;SDS011;847;48.058;7.810;2022-11-15T00:52:08;4.87;;;4.37;;
1699;SDS011;847;48.058;7.810;2022-11-15T00:54:35;4.40;;;3.87;;
1699;SDS011;847;48.058;7.810;2022-11-15T00:57:01;4.93;;;3.90;;
1699;SDS011;847;48.058;7.810;2022-11-15T00:59:31;4.87;;;4.03;;
1699;SDS011;847;48.058;7.810;2022-11-15T01:01:59;5.20;;;3.97;;
1699;SDS011;847;48.058;7.810;2022-11-15T01:04:26;5.33;;;3.73;;
1699;SDS011;847;48.058;7.810;2022-11-15T01:06:53;6.03;;;4.33;;
1699;SDS011;847;48.058;7.810;2022-11-15T01:09:20;4.77;;;3.97;;
1699;SDS011;847;48.058;7.810;2022-11-15T01:11:47;4.70;;;3.50;;
1699;SDS011;847;48.058;7.810;2022-11-15T01:14:14;6.93;;;4.53;;
1699;SDS011;847;48.058;7.810;2022-11-15T01:16:41;5.40;;;4.90;;
1699;SDS011;847;48.058;7.810;2022-11-15T01:19:09;5.30;;;4.73;;
1699;SDS011;847;48.058;7.810;2022-11-15T01:21:36;6.43;;;5.10;;
1699;SDS011;847;48.058;7.810;2022-11-15T01:24:03;6.80;;;5.30;;
1699;SDS011;847;48.058;7.810;2022-11-15T01:26:30;7.07;;;5.03;;
1699;SDS011;847;48.058;7.810;2022-11-15T01:28:57;6.83;;;5.27;;
1699;SDS011;847;48.058;7.810;2022-11-15T01:31:24;6.20;;;5.60;;
1699;SDS011;847;48.058;7.810;2022-11-15T01:33:50;5.27;;;4.70;;
1699;SDS011;847;48.058;7.810;2022-11-15T01:36:20;6.30;;;3.90;;
1699;SDS011;847;48.058;7.810;2022-11-15T01:38:52;7.17;;;4.83;;
1699;SDS011;847;48.058;7.810;2022-11-15T01:41:20;7.30;;;4.37;;
1699;SDS011;847;48.058;7.810;2022-11-15T01:43:49;5.30;;;4.20;;
1699;SDS011;847;48.058;7.810;2022-11-15T01:46:22;6.50;;;4.33;;
1699;SDS011;847;48.058;7.810;2022-11-15T01:48:53;5.90;;;5.03;;
1699;SDS011;847;48.058;7.810;2022-11-15T01:51:23;4.70;;;3.33;;
1699;SDS011;847;48.058;7.810;2022-11-15T01:53:52;6.00;;;4.60;;
1699;SDS011;847;48.058;7.810;2022-11-15T01:56:23;10.40;;;4.70;;
1699;SDS011;847;48.058;7.810;2022-11-15T01:58:55;6.70;;;4.50;;
1699;SDS011;847;48.058;7.810;2022-11-15T02:01:23;5.43;;;4.10;;
1699;SDS011;847;48.058;7.810;2022-11-15T02:03:54;5.23;;;4.77;;
1699;SDS011;847;48.058;7.810;2022-11-15T02:06:25;4.73;;;4.30;;
1699;SDS011;847;48.058;7.810;2022-11-15T02:08:52;5.53;;;4.90;;
1699;SDS011;847;48.058;7.810;2022-11-15T02:11:20;10.03;;;6.60;;
1699;SDS011;847;48.058;7.810;2022-11-15T02:13:47;9.40;;;6.37;;
1699;SDS011;847;48.058;7.810;2022-11-15T02:16:15;7.30;;;5.83;;
1699;SDS011;847;48.058;7.810;2022-11-15T02:18:52;6.90;;;6.27;;
1699;SDS011;847;48.058;7.810;2022-11-15T02:21:25;7.03;;;5.90;;
1699;SDS011;847;48.058;7.810;2022-11-15T02:24:06;8.50;;;6.17;;
1699;SDS011;847;48.058;7.810;2022-11-15T02:27:15;7.77;;;6.77;;
1699;SDS011;847;48.058;7.810;2022-11-15T02:30:22;8.50;;;5.60;;
1699;SDS011;847;48.058;7.810;2022-11-15T02:32:57;6.10;;;5.50;;
1699;SDS011;847;48.058;7.810;2022-11-15T02:35:29;6.63;;;5.53;;
1699;SDS011;847;48.058;7.810;2022-11-15T02:38:04;6.27;;;5.40;;
1699;SDS011;847;48.058;7.810;2022-11-15T02:40:37;6.40;;;5.80;;
1699;SDS011;847;48.058;7.810;2022-11-15T02:43:09;6.60;;;5.87;;
1699;SDS011;847;48.058;7.810;2022-11-15T02:45:58;5.77;;;5.00;;
1699;SDS011;847;48.058;7.810;2022-11-15T02:48:30;6.60;;;5.10;;
1699;SDS011;847;48.058;7.810;2022-11-15T02:50:58;6.30;;;5.40;;
1699;SDS011;847;48.058;7.810;2022-11-15T02:53:26;6.23;;;5.10;;
1699;SDS011;847;48.058;7.810;2022-11-15T02:55:54;5.23;;;4.73;;
1699;SDS011;847;48.058;7.810;2022-11-15T02:58:27;8.23;;;5.60;;
1699;SDS011;847;48.058;7.810;2022-11-15T03:01:11;6.23;;;5.47;;
1699;SDS011;847;48.058;7.810;2022-11-15T03:03:48;5.27;;;4.60;;
1699;SDS011;847;48.058;7.810;2022-11-15T03:06:27;5.50;;;5.00;;
1699;SDS011;847;48.058;7.810;2022-11-15T03:09:02;7.03;;;4.43;;
1699;SDS011;847;48.058;7.810;2022-11-15T03:11:34;6.30;;;5.70;;
1699;SDS011;847;48.058;7.810;2022-11-15T03:14:07;5.07;;;4.57;;
1699;SDS011;847;48.058;7.810;2022-11-15T03:16:47;5.40;;;4.33;;
1699;SDS011;847;48.058;7.810;2022-11-15T03:19:19;5.60;;;5.10;;
1699;SDS011;847;48.058;7.810;2022-11-15T03:21:52;5.13;;;4.63;;
1699;SDS011;847;48.058;7.810;2022-11-15T03:24:19;6.60;;;4.97;;
1699;SDS011;847;48.058;7.810;2022-11-15T03:26:49;5.70;;;5.10;;
1699;SDS011;847;48.058;7.810;2022-11-15T03:29:19;5.40;;;4.90;;
1699;SDS011;847;48.058;7.810;2022-11-15T03:31:53;7.53;;;4.80;;
1699;SDS011;847;48.058;7.810;2022-11-15T03:34:26;4.50;;;4.10;;
1699;SDS011;847;48.058;7.810;2022-11-15T03:36:56;5.70;;;5.20;;
1699;SDS011;847;48.058;7.810;2022-11-15T03:39:23;6.57;;;5.70;;
1699;SDS011;847;48.058;7.810;2022-11-15T03:41:56;9.57;;;4.97;;
1699;SDS011;847;48.058;7.810;2022-11-15T03:44:40;5.97;;;4.87;;
1699;SDS011;847;48.058;7.810;2022-11-15T03:47:18;5.80;;;5.20;;
1699;SDS011;847;48.058;7.810;2022-11-15T03:49:49;6.80;;;5.03;;
1699;SDS011;847;48.058;7.810;2022-11-15T03:52:20;7.27;;;4.90;;
1699;SDS011;847;48.058;7.810;2022-11-15T03:54:52;7.03;;;4.97;;
1699;SDS011;847;48.058;7.810;2022-11-15T03:57:21;5.10;;;4.47;;
1699;SDS011;847;48.058;7.810;2022-11-15T03:59:48;6.80;;;6.10;;
1699;SDS011;847;48.058;7.810;2022-11-15T04:02:15;4.57;;;4.17;;
1699;SDS011;847;48.058;7.810;2022-11-15T04:04:43;6.57;;;4.20;;
1699;SDS011;847;48.058;7.810;2022-11-15T04:07:10;5.47;;;4.70;;
1699;SDS011;847;48.058;7.810;2022-11-15T04:09:38;4.53;;;4.13;;
1699;SDS011;847;48.058;7.810;2022-11-15T04:12:24;6.40;;;5.80;;
1699;SDS011;847;48.058;7.810;2022-11-15T04:14:57;4.93;;;4.43;;
1699;SDS011;847;48.058;7.810;2022-11-15T04:17:35;6.37;;;4.80;;
1699;SDS011;847;48.058;7.810;2022-11-15T04:20:06;5.13;;;4.33;;
1699;SDS011;847;48.058;7.810;2022-11-15T04:22:53;4.77;;;3.80;;
1699;SDS011;847;48.058;7.810;2022-11-15T04:25:38;5.17;;;4.53;;
1699;SDS011;847;48.058;7.810;2022-11-15T04:28:06;4.50;;;4.10;;
1699;SDS011;847;48.058;7.810;2022-11-15T04:30:34;6.73;;;5.03;;
1699;SDS011;847;48.058;7.810;2022-11-15T04:33:01;5.63;;;4.50;;
1699;SDS011;847;48.058;7.810;2022-11-15T04:35:31;4.53;;;3.77;;
1699;SDS011;847;48.058;7.810;2022-11-15T04:37:59;5.00;;;4.50;;
1699;SDS011;847;48.058;7.810;2022-11-15T04:40:26;4.10;;;3.70;;
1699;SDS011;847;48.058;7.810;2022-11-15T04:42:55;6.30;;;5.07;;
1699;SDS011;847;48.058;7.810;2022-11-15T04:45:25;5.73;;;4.50;;
1699;SDS011;847;48.058;7.810;2022-11-15T04:47:53;5.10;;;3.50;;
1699;SDS011;847;48.058;7.810;2022-11-15T04:50:21;5.70;;;4.13;;
1699;SDS011;847;48.058;7.810;2022-11-15T04:52:53;5.03;;;4.10;;
1699;SDS011;847;48.058;7.810;2022-11-15T04:55:22;5.90;;;4.00;;
1699;SDS011;847;48.058;7.810;2022-11-15T04:57:58;4.53;;;3.93;;
1699;SDS011;847;48.058;7.810;2022-11-15T05:00:30;7.30;;;5.60;;
1699;SDS011;847;48.058;7.810;2022-11-15T05:02:58;5.40;;;4.30;;
1699;SDS011;847;48.058;7.810;2022-11-15T05:08:17;5.93;;;4.43;;
1699;SDS011;847;48.058;7.810;2022-11-15T05:10:44;7.17;;;3.77;;
1699;SDS011;847;48.058;7.810;2022-11-15T05:13:11;5.93;;;4.53;;
1699;SDS011;847;48.058;7.810;2022-11-15T05:15:37;4.70;;;4.00;;
1699;SDS011;847;48.058;7.810;2022-11-15T05:18:04;4.90;;;3.90;;
1699;SDS011;847;48.058;7.810;2022-11-15T05:20:31;5.43;;;3.90;;
1699;SDS011;847;48.058;7.810;2022-11-15T05:22:58;5.30;;;3.30;;
1699;SDS011;847;48.058;7.810;2022-11-15T05:25:26;5.33;;;3.67;;
1699;SDS011;847;48.058;7.810;2022-11-15T05:27:53;5.17;;;4.07;;
1699;SDS011;847;48.058;7.810;2022-11-15T05:30:21;4.10;;;3.70;;
1699;SDS011;847;48.058;7.810;2022-11-15T05:32:49;4.90;;;3.70;;
1699;SDS011;847;48.058;7.810;2022-11-15T05:35:18;6.13;;;4.67;;
1699;SDS011;847;48.058;7.810;2022-11-15T05:37:53;4.40;;;3.43;;
1699;SDS011;847;48.058;7.810;2022-11-15T05:40:20;4.80;;;3.40;;
1699;SDS011;847;48.058;7.810;2022-11-15T05:42:50;4.07;;;3.70;;
1699;SDS011;847;48.058;7.810;2022-11-15T05:45:23;4.53;;;3.23;;
1699;SDS011;847;48.058;7.810;2022-11-15T05:47:57;4.50;;;3.60;;
1699;SDS011;847;48.058;7.810;2022-11-15T05:50:29;3.83;;;3.43;;
1699;SDS011;847;48.058;7.810;2022-11-15T05:52:58;4.90;;;3.30;;
1699;SDS011;847;48.058;7.810;2022-11-15T05:55:32;4.80;;;3.23;;
1699;SDS011;847;48.058;7.810;2022-11-15T05:58:00;4.80;;;3.53;;
1699;SDS011;847;48.058;7.810;2022-11-15T06:00:27;5.97;;;3.90;;
1699;SDS011;847;48.058;7.810;2022-11-15T06:02:55;5.37;;;3.83;;
1699;SDS011;847;48.058;7.810;2022-11-15T06:05:23;4.20;;;3.80;;
1699;SDS011;847;48.058;7.810;2022-11-15T06:07:49;5.40;;;4.37;;
1699;SDS011;847;48.058;7.810;2022-11-15T06:10:16;6.00;;;4.63;;
1699;SDS011;847;48.058;7.810;2022-11-15T06:12:44;4.87;;;3.70;;
1699;SDS011;847;48.058;7.810;2022-11-15T06:15:13;5.53;;;4.20;;
1699;SDS011;847;48.058;7.810;2022-11-15T06:17:40;4.70;;;3.57;;
1699;SDS011;847;48.058;7.810;2022-11-15T06:20:07;5.93;;;4.30;;
1699;SDS011;847;48.058;7.810;2022-11-15T06:22:38;5.33;;;4.63;;
1699;SDS011;847;48.058;7.810;2022-11-15T06:25:05;7.77;;;4.77;;
1699;SDS011;847;48.058;7.810;2022-11-15T06:27:33;6.30;;;4.73;;
1699;SDS011;847;48.058;7.810;2022-11-15T06:30:00;5.67;;;5.10;;
1699;SDS011;847;48.058;7.810;2022-11-15T06:32:29;6.90;;;5.23;;
1699;SDS011;847;48.058;7.810;2022-11-15T06:34:58;8.10;;;5.37;;
1699;SDS011;847;48.058;7.810;2022-11-15T06:37:26;9.20;;;5.20;;
1699;SDS011;847;48.058;7.810;2022-11-15T06:39:56;7.40;;;4.43;;
1699;SDS011;847;48.058;7.810;2022-11-15T06:42:23;6.93;;;4.80;;
1699;SDS011;847;48.058;7.810;2022-11-15T06:44:51;6.37;;;4.57;;
1699;SDS011;847;48.058;7.810;2022-11-15T06:47:18;5.87;;;4.30;;
1699;SDS011;847;48.058;7.810;2022-11-15T06:49:47;6.07;;;4.50;;
1699;SDS011;847;48.058;7.810;2022-11-15T06:52:14;7.90;;;5.03;;
1699;SDS011;847;48.058;7.810;2022-11-15T06:54:43;6.23;;;4.33;;
1699;SDS011;847;48.058;7.810;2022-11-15T06:57:10;4.73;;;3.90;;
1699;SDS011;847;48.058;7.810;2022-11-15T06:59:37;4.83;;;4.07;;
1699;SDS011;847;48.058;7.810;2022-11-15T07:02:04;5.37;;;4.10;;
1699;SDS011;847;48.058;7.810;2022-11-15T07:04:31;4.83;;;4.43;;
1699;SDS011;847;48.058;7.810;2022-11-15T07:07:02;5.80;;;4.43;;
1699;SDS011;847;48.058;7.810;2022-11-15T07:09:29;6.40;;;4.50;;
1699;SDS011;847;48.058;7.810;2022-11-15T07:11:57;4.70;;;4.20;;
1699;SDS011;847;48.058;7.810;2022-11-15T07:14:24;5.23;;;4.57;;
1699;SDS011;847;48.058;7.810;2022-11-15T07:16:52;5.70;;;4.63;;
1699;SDS011;847;48.058;7.810;2022-11-15T07:19:19;6.33;;;4.80;;
1699;SDS011;847;48.058;7.810;2022-11-15T07:21:47;5.27;;;4.27;;
1699;SDS011;847;48.058;7.810;2022-11-15T07:24:15;6.63;;;4.50;;
1699;SDS011;847;48.058;7.810;2022-11-15T07:26:42;5.97;;;4.80;;
1699;SDS011;847;48.058;7.810;2022-11-15T07:29:09;6.20;;;4.73;;
1699;SDS011;847;48.058;7.810;2022-11-15T07:31:36;7.33;;;4.70;;
1699;SDS011;847;48.058;7.810;2022-11-15T07:34:04;6.30;;;4.70;;
1699;SDS011;847;48.058;7.810;2022-11-15T07:39:06;6.40;;;5.30;;
1699;SDS011;847;48.058;7.810;2022-11-15T07:41:34;8.10;;;6.00;;
1699;SDS011;847;48.058;7.810;2022-11-15T07:44:01;7.67;;;5.37;;
1699;SDS011;847;48.058;7.810;2022-11-15T07:46:28;6.87;;;5.27;;
1699;SDS011;847;48.058;7.810;2022-11-15T07:48:55;6.20;;;5.60;;
1699;SDS011;847;48.058;7.810;2022-11-15T07:51:22;7.47;;;5.50;;
1699;SDS011;847;48.058;7.810;2022-11-15T07:53:49;6.20;;;5.60;;
1699;SDS011;847;48.058;7.810;2022-11-15T07:56:15;9.30;;;5.80;;
1699;SDS011;847;48.058;7.810;2022-11-15T07:58:43;6.53;;;5.50;;
1699;SDS011;847;48.058;7.810;2022-11-15T08:01:12;7.93;;;5.20;;
1699;SDS011;847;48.058;7.810;2022-11-15T08:03:38;7.67;;;5.67;;
1699;SDS011;847;48.058;7.810;2022-11-15T08:06:05;6.20;;;5.60;;
1699;SDS011;847;48.058;7.810;2022-11-15T08:08:32;5.47;;;4.90;;
1699;SDS011;847;48.058;7.810;2022-11-15T08:10:59;6.40;;;5.73;;
1699;SDS011;847;48.058;7.810;2022-11-15T08:13:26;17.00;;;11.80;;
1699;SDS011;847;48.058;7.810;2022-11-15T08:15:58;9.00;;;7.43;;
1699;SDS011;847;48.058;7.810;2022-11-15T08:18:25;12.33;;;9.67;;
1699;SDS011;847;48.058;7.810;2022-11-15T08:20:52;8.27;;;7.37;;
1699;SDS011;847;48.058;7.810;2022-11-15T08:23:18;8.80;;;7.33;;
1699;SDS011;847;48.058;7.810;2022-11-15T08:25:45;10.20;;;7.40;;
1699;SDS011;847;48.058;7.810;2022-11-15T08:28:12;8.13;;;7.00;;
1699;SDS011;847;48.058;7.810;2022-11-15T08:30:40;9.40;;;8.50;;
1699;SDS011;847;48.058;7.810;2022-11-15T08:33:12;8.60;;;7.10;;
1699;SDS011;847;48.058;7.810;2022-11-15T08:35:39;6.73;;;6.03;;
1699;SDS011;847;48.058;7.810;2022-11-15T08:38:07;7.53;;;6.63;;
1699;SDS011;847;48.058;7.810;2022-11-15T08:40:34;6.03;;;4.77;;
1699;SDS011;847;48.058;7.810;2022-11-15T08:43:01;6.13;;;5.33;;
1699;SDS011;847;48.058;7.810;2022-11-15T08:45:28;7.20;;;5.00;;
1699;SDS011;847;48.058;7.810;2022-11-15T08:47:55;5.70;;;4.60;;
1699;SDS011;847;48.058;7.810;2022-11-15T08:50:23;6.40;;;5.80;;
1699;SDS011;847;48.058;7.810;2022-11-15T08:52:50;5.47;;;4.97;;
1699;SDS011;847;48.058;7.810;2022-11-15T08:55:16;6.57;;;4.83;;
1699;SDS011;847;48.058;7.810;2022-11-15T08:57:43;6.97;;;5.40;;
1699;SDS011;847;48.058;7.810;2022-11-15T09:00:11;5.97;;;4.80;;
1699;SDS011;847;48.058;7.810;2022-11-15T09:02:39;6.27;;;5.67;;
1699;SDS011;847;48.058;7.810;2022-11-15T09:05:09;6.40;;;5.50;;
1699;SDS011;847;48.058;7.810;2022-11-15T09:07:37;8.40;;;5.77;;
1699;SDS011;847;48.058;7.810;2022-11-15T09:10:05;7.37;;;6.70;;
1699;SDS011;847;48.058;7.810;2022-11-15T09:12:32;7.17;;;6.00;;
1699;SDS011;847;48.058;7.810;2022-11-15T09:14:59;8.90;;;8.10;;
1699;SDS011;847;48.058;7.810;2022-11-15T09:17:25;11.70;;;8.80;;
1699;SDS011;847;48.058;7.810;2022-11-15T09:19:52;7.67;;;6.80;;
1699;SDS011;847;48.058;7.810;2022-11-15T09:22:19;9.80;;;8.80;;
1699;SDS011;847;48.058;7.810;2022-11-15T09:24:47;10.00;;;8.43;;
1699;SDS011;847;48.058;7.810;2022-11-15T09:27:14;9.13;;;8.23;;
1699;SDS011;847;48.058;7.810;2022-11-15T09:29:40;10.67;;;7.77;;
1699;SDS011;847;48.058;7.810;2022-11-15T09:32:07;8.47;;;6.97;;
1699;SDS011;847;48.058;7.810;2022-11-15T09:34:34;7.60;;;6.50;;
1699;SDS011;847;48.058;7.810;2022-11-15T09:37:01;10.90;;;7.07;;
1699;SDS011;847;48.058;7.810;2022-11-15T09:39:28;8.13;;;6.73;;
1699;SDS011;847;48.058;7.810;2022-11-15T09:42:00;7.43;;;6.73;;
1699;SDS011;847;48.058;7.810;2022-11-15T09:45:02;8.03;;;6.53;;
1699;SDS011;847;48.058;7.810;2022-11-15T09:47:45;8.93;;;7.20;;
1699;SDS011;847;48.058;7.810;2022-11-15T09:50:28;8.87;;;7.97;;
1699;SDS011;847;48.058;7.810;2022-11-15T09:53:00;10.23;;;9.20;;
1699;SDS011;847;48.058;7.810;2022-11-15T09:55:29;16.47;;;11.90;;
1699;SDS011;847;48.058;7.810;2022-11-15T09:58:05;13.37;;;10.17;;
1699;SDS011;847;48.058;7.810;2022-11-15T10:00:44;14.40;;;10.80;;
1699;SDS011;847;48.058;7.810;2022-11-15T10:03:18;12.83;;;10.27;;
1699;SDS011;847;48.058;7.810;2022-11-15T10:05:51;11.80;;;10.60;;
1699;SDS011;847;48.058;7.810;2022-11-15T10:08:26;12.93;;;11.57;;
1699;SDS011;847;48.058;7.810;2022-11-15T10:11:00;10.50;;;9.50;;
1699;SDS011;847;48.058;7.810;2022-11-15T10:13:32;9.37;;;7.43;;
1699;SDS011;847;48.058;7.810;2022-11-15T10:16:03;10.00;;;8.33;;
1699;SDS011;847;48.058;7.810;2022-11-15T10:18:35;9.77;;;8.87;;
1699;SDS011;847;48.058;7.810;2022-11-15T10:21:15;8.47;;;7.00;;
1699;SDS011;847;48.058;7.810;2022-11-15T10:23:45;8.23;;;7.43;;
1699;SDS011;847;48.058;7.810;2022-11-15T10:26:13;8.03;;;6.77;;
1699;SDS011;847;48.058;7.810;2022-11-15T10:28:44;6.00;;;5.40;;
1699;SDS011;847;48.058;7.810;2022-11-15T10:31:21;8.13;;;6.40;;
1699;SDS011;847;48.058;7.810;2022-11-15T10:33:50;7.50;;;6.23;;
1699;SDS011;847;48.058;7.810;2022-11-15T10:36:19;7.43;;;5.80;;
1699;SDS011;847;48.058;7.810;2022-11-15T10:38:58;6.37;;;5.77;;
1699;SDS011;847;48.058;7.810;2022-11-15T10:41:37;9.23;;;5.43;;
1699;SDS011;847;48.058;7.810;2022-11-15T10:44:20;7.43;;;5.40;;
1699;SDS011;847;48.058;7.810;2022-11-15T10:47:03;7.10;;;6.00;;
1699;SDS011;847;48.058;7.810;2022-11-15T10:49:53;6.33;;;5.30;;
1699;SDS011;847;48.058;7.810;2022-11-15T10:52:25;5.80;;;4.93;;
1699;SDS011;847;48.058;7.810;2022-11-15T10:54:54;6.57;;;5.90;;
1699;SDS011;847;48.058;7.810;2022-11-15T10:57:23;6.90;;;6.20;;
1699;SDS011;847;48.058;7.810;2022-11-15T10:59:54;7.03;;;5.97;;
1699;SDS011;847;48.058;7.810;2022-11-15T11:02:29;7.53;;;5.53;;
1699;SDS011;847;48.058;7.810;2022-11-15T11:04:59;6.40;;;5.17;;
1699;SDS011;847;48.058;7.810;2022-11-15T11:07:27;6.33;;;5.60;;
1699;SDS011;847;48.058;7.810;2022-11-15T11:10:03;10.93;;;9.27;;
1699;SDS011;847;48.058;7.810;2022-11-15T11:12:42;10.03;;;8.90;;
1699;SDS011;847;48.058;7.810;2022-11-15T11:15:12;7.77;;;6.90;;
1699;SDS011;847;48.058;7.810;2022-11-15T11:17:45;7.33;;;6.63;;
1699;SDS011;847;48.058;7.810;2022-11-15T11:20:20;7.60;;;5.83;;
1699;SDS011;847;48.058;7.810;2022-11-15T11:22:57;7.93;;;7.23;;
1699;SDS011;847;48.058;7.810;2022-11-15T11:25:32;9.70;;;8.67;;
1699;SDS011;847;48.058;7.810;2022-11-15T11:28:05;7.57;;;6.87;;
1699;SDS011;847;48.058;7.810;2022-11-15T11:30:53;6.10;;;5.50;;
1699;SDS011;847;48.058;7.810;2022-11-15T11:33:27;14.00;;;7.93;;
1699;SDS011;847;48.058;7.810;2022-11-15T11:36:01;6.30;;;5.70;;
1699;SDS011;847;48.058;7.810;2022-11-15T11:38:39;6.03;;;5.17;;
1699;SDS011;847;48.058;7.810;2022-11-15T11:41:16;5.90;;;5.30;;
1699;SDS011;847;48.058;7.810;2022-11-15T11:43:52;6.97;;;5.00;;
1699;SDS011;847;48.058;7.810;2022-11-15T11:46:36;7.03;;;6.40;;
1699;SDS011;847;48.058;7.810;2022-11-15T11:49:10;8.30;;;7.43;;
1699;SDS011;847;48.058;7.810;2022-11-15T11:51:42;14.00;;;10.60;;
1699;SDS011;847;48.058;7.810;2022-11-15T11:54:14;12.70;;;9.90;;
1699;SDS011;847;48.058;7.810;2022-11-15T11:56:47;10.30;;;8.47;;
1699;SDS011;847;48.058;7.810;2022-11-15T11:59:17;10.40;;;8.27;;
1699;SDS011;847;48.058;7.810;2022-11-15T12:01:50;10.50;;;8.20;;
1699;SDS011;847;48.058;7.810;2022-11-15T12:04:18;9.43;;;8.13;;
1699;SDS011;847;48.058;7.810;2022-11-15T12:06:53;14.17;;;12.20;;
1699;SDS011;847;48.058;7.810;2022-11-15T12:09:26;10.80;;;9.70;;
1699;SDS011;847;48.058;7.810;2022-11-15T12:11:58;8.83;;;7.73;;
1699;SDS011;847;48.058;7.810;2022-11-15T12:14:32;7.00;;;6.30;;
1699;SDS011;847;48.058;7.810;2022-11-15T12:17:07;7.00;;;6.20;;
1699;SDS011;847;48.058;7.810;2022-11-15T12:19:36;9.63;;;7.07;;
1699;SDS011;847;48.058;7.810;2022-11-15T12:22:03;6.67;;;6.00;;
1699;SDS011;847;48.058;7.810;2022-11-15T12:24:37;8.20;;;7.37;;
1699;SDS011;847;48.058;7.810;2022-11-15T12:27:11;8.07;;;7.27;;
1699;SDS011;847;48.058;7.810;2022-11-15T12:29:43;8.63;;;7.03;;
1699;SDS011;847;48.058;7.810;2022-11-15T12:32:17;7.33;;;6.60;;
1699;SDS011;847;48.058;7.810;2022-11-15T12:34:50;10.70;;;8.83;;
1699;SDS011;847;48.058;7.810;2022-11-15T12:40:30;9.20;;;7.80;;
1699;SDS011;847;48.058;7.810;2022-11-15T12:42:59;8.00;;;7.20;;
1699;SDS011;847;48.058;7.810;2022-11-15T12:45:42;9.13;;;7.47;;
1699;SDS011;847;48.058;7.810;2022-11-15T13:00:53;8.77;;;7.87;;
1699;SDS011;847;48.058;7.810;2022-11-15T13:03:26;15.17;;;13.57;;
1699;SDS011;847;48.058;7.810;2022-11-15T13:06:07;14.30;;;12.33;;
1699;SDS011;847;48.058;7.810;2022-11-15T13:08:43;14.10;;;12.70;;
1699;SDS011;847;48.058;7.810;2022-11-15T13:17:29;12.43;;;10.63;;
1699;SDS011;847;48.058;7.810;2022-11-15T13:19:59;13.53;;;11.80;;
1699;SDS011;847;48.058;7.810;2022-11-15T13:22:37;13.30;;;11.53;;
1699;SDS011;847;48.058;7.810;2022-11-15T13:28:36;11.07;;;9.80;;
1699;SDS011;847;48.058;7.810;2022-11-15T13:31:14;12.43;;;11.13;;
1699;SDS011;847;48.058;7.810;2022-11-15T13:33:51;12.63;;;11.33;;
1699;SDS011;847;48.058;7.810;2022-11-15T13:36:19;13.73;;;12.30;;
1699;SDS011;847;48.058;7.810;2022-11-15T13:38:55;14.00;;;12.60;;
1699;SDS011;847;48.058;7.810;2022-11-15T13:41:24;11.07;;;9.90;;
1699;SDS011;847;48.058;7.810;2022-11-15T13:43:53;11.63;;;10.43;;
1699;SDS011;847;48.058;7.810;2022-11-15T13:46:21;13.00;;;8.50;;
1699;SDS011;847;48.058;7.810;2022-11-15T13:48:53;12.30;;;10.80;;
1699;SDS011;847;48.058;7.810;2022-11-15T13:51:25;10.10;;;9.10;;
1699;SDS011;847;48.058;7.810;2022-11-15T13:53:56;10.27;;;9.23;;
1699;SDS011;847;48.058;7.810;2022-11-15T13:56:26;11.50;;;9.17;;
1699;SDS011;847;48.058;7.810;2022-11-15T13:58:54;11.90;;;9.53;;
1699;SDS011;847;48.058;7.810;2022-11-15T14:01:21;13.50;;;11.00;;
1699;SDS011;847;48.058;7.810;2022-11-15T14:03:50;11.60;;;10.40;;
1699;SDS011;847;48.058;7.810;2022-11-15T14:06:22;16.50;;;13.27;;
1699;SDS011;847;48.058;7.810;2022-11-15T14:09:03;13.97;;;12.43;;
1699;SDS011;847;48.058;7.810;2022-11-15T14:11:49;12.03;;;9.40;;
1699;SDS011;847;48.058;7.810;2022-11-15T14:14:16;12.43;;;9.90;;
1699;SDS011;847;48.058;7.810;2022-11-15T14:16:47;13.70;;;12.27;;
1699;SDS011;847;48.058;7.810;2022-11-15T14:22:16;13.63;;;12.33;;
1699;SDS011;847;48.058;7.810;2022-11-15T14:24:46;15.17;;;12.00;;
1699;SDS011;847;48.058;7.810;2022-11-15T14:27:30;11.37;;;10.17;;
1699;SDS011;847;48.058;7.810;2022-11-15T14:29:57;11.57;;;10.57;;
1699;SDS011;847;48.058;7.810;2022-11-15T14:32:25;9.50;;;8.47;;
1699;SDS011;847;48.058;7.810;2022-11-15T14:34:55;18.23;;;15.37;;
1699;SDS011;847;48.058;7.810;2022-11-15T14:37:23;12.93;;;11.47;;
1699;SDS011;847;48.058;7.810;2022-11-15T14:39:52;11.60;;;8.80;;
1699;SDS011;847;48.058;7.810;2022-11-15T14:42:20;9.03;;;8.10;;
1699;SDS011;847;48.058;7.810;2022-11-15T14:44:48;7.87;;;7.17;;
1699;SDS011;847;48.058;7.810;2022-11-15T14:47:15;11.57;;;8.20;;
1699;SDS011;847;48.058;7.810;2022-11-15T14:49:42;9.60;;;8.70;;
1699;SDS011;847;48.058;7.810;2022-11-15T14:52:19;7.83;;;7.07;;
1699;SDS011;847;48.058;7.810;2022-11-15T14:54:52;7.13;;;6.43;;
1699;SDS011;847;48.058;7.810;2022-11-15T14:57:19;10.43;;;7.00;;
1699;SDS011;847;48.058;7.810;2022-11-15T14:59:46;5.53;;;5.03;;
1699;SDS011;847;48.058;7.810;2022-11-15T15:02:15;8.90;;;8.00;;
1699;SDS011;847;48.058;7.810;2022-11-15T15:04:43;7.53;;;5.50;;
1699;SDS011;847;48.058;7.810;2022-11-15T15:07:10;6.13;;;5.40;;
1699;SDS011;847;48.058;7.810;2022-11-15T15:09:38;6.03;;;5.50;;
1699;SDS011;847;48.058;7.810;2022-11-15T15:12:05;6.57;;;5.97;;
1699;SDS011;847;48.058;7.810;2022-11-15T15:14:38;7.73;;;6.93;;
1699;SDS011;847;48.058;7.810;2022-11-15T15:17:04;8.17;;;7.47;;
1699;SDS011;847;48.058;7.810;2022-11-15T15:19:31;8.13;;;7.33;;
1699;SDS011;847;48.058;7.810;2022-11-15T15:21:58;7.10;;;6.10;;
1699;SDS011;847;48.058;7.810;2022-11-15T15:24:25;8.63;;;6.40;;
1699;SDS011;847;48.058;7.810;2022-11-15T15:26:53;8.33;;;6.10;;
1699;SDS011;847;48.058;7.810;2022-11-15T15:29:20;9.03;;;6.33;;
1699;SDS011;847;48.058;7.810;2022-11-15T15:31:46;7.00;;;6.30;;
1699;SDS011;847;48.058;7.810;2022-11-15T15:34:13;39.70;;;24.17;;
1699;SDS011;847;48.058;7.810;2022-11-15T15:36:40;23.23;;;15.00;;
1699;SDS011;847;48.058;7.810;2022-11-15T15:39:08;14.23;;;11.03;;
1699;SDS011;847;48.058;7.810;2022-11-15T15:41:36;10.63;;;7.63;;
1699;SDS011;847;48.058;7.810;2022-11-15T15:44:04;9.50;;;8.50;;
1699;SDS011;847;48.058;7.810;2022-11-15T15:46:31;9.20;;;7.13;;
1699;SDS011;847;48.058;7.810;2022-11-15T15:48:59;8.43;;;7.60;;
1699;SDS011;847;48.058;7.810;2022-11-15T15:51:25;11.00;;;7.93;;
1699;SDS011;847;48.058;7.810;2022-11-15T15:53:52;8.53;;;6.70;;
1699;SDS011;847;48.058;7.810;2022-11-15T15:56:22;9.50;;;8.30;;
1699;SDS011;847;48.058;7.810;2022-11-15T15:58:48;8.77;;;7.07;;
1699;SDS011;847;48.058;7.810;2022-11-15T16:01:18;9.20;;;8.30;;
1699;SDS011;847;48.058;7.810;2022-11-15T16:03:45;8.97;;;6.50;;
1699;SDS011;847;48.058;7.810;2022-11-15T16:06:25;11.87;;;9.13;;
1699;SDS011;847;48.058;7.810;2022-11-15T16:09:00;10.67;;;9.57;;
1699;SDS011;847;48.058;7.810;2022-11-15T16:11:27;13.70;;;9.70;;
1699;SDS011;847;48.058;7.810;2022-11-15T16:13:54;9.90;;;8.97;;
1699;SDS011;847;48.058;7.810;2022-11-15T16:16:22;11.70;;;10.50;;
1699;SDS011;847;48.058;7.810;2022-11-15T16:18:49;10.67;;;9.57;;